Time;durP1;ratioP1;P1;durP2;ratioP2;P2;SDS_P1;SDS_P2;PMS_P1;PMS_P2;Temp;Humidity;BMP_temperature;BMP_pressure;BME280_temperature;BME280_humidity;BME280_pressure;Samples;Min_cycle;Max_cycle;Signal;HPM_P1;HPM_P2
2021/03/29 00:02:13;;;;;;;85.42;32.03;;;;;;;0.35;65.29;98547.00;1809972;79;25811;-80
2021/03/29 00:04:41;;;;;;;94.07;34.13;;;;;;;0.41;65.38;98551.45;1809989;79;27497;-80
2021/03/29 00:07:10;;;;;;;99.35;36.63;;;;;;;0.41;65.26;98551.45;1809974;79;25626;-81
2021/03/29 00:09:39;;;;;;;102.35;35.83;;;;;;;0.36;65.23;98544.67;1809975;78;25700;-81
2021/03/29 00:12:10;;;;;;;93.75;35.03;;;;;;;0.31;65.29;98546.86;1810024;79;25686;-81
2021/03/29 00:14:37;;;;;;;90.35;32.95;;;;;;;0.33;65.34;98546.27;1805517;79;25489;-79
2021/03/29 00:17:06;;;;;;;101.55;34.88;;;;;;;0.31;65.45;98550.84;1809997;79;27758;-81
2021/03/29 00:19:35;;;;;;;94.42;34.20;;;;;;;0.27;65.49;98555.17;1805329;79;26357;-81
2021/03/29 00:22:04;;;;;;;85.65;32.70;;;;;;;0.29;65.60;98559.89;1809964;78;25720;-80
2021/03/29 00:24:33;;;;;;;107.83;35.60;;;;;;;0.27;65.67;98557.34;1809919;79;26464;-80
2021/03/29 00:27:02;;;;;;;102.85;35.50;;;;;;;0.26;65.68;98556.98;1810018;79;25696;-81
2021/03/29 00:29:30;;;;;;;88.95;33.15;;;;;;;0.26;65.71;98552.16;1809814;79;27490;-81
2021/03/29 00:31:59;;;;;;;80.22;32.33;;;;;;;0.25;65.71;98550.45;1809695;78;25806;-81
2021/03/29 00:34:27;;;;;;;67.47;31.75;;;;;;;0.23;65.79;98555.07;1809786;79;25697;-81
2021/03/29 00:36:55;;;;;;;76.22;32.50;;;;;;;0.22;65.86;98558.20;1809940;79;25685;-81
2021/03/29 00:39:24;;;;;;;66.62;30.50;;;;;;;0.18;65.87;98556.74;1809985;79;26252;-81
2021/03/29 00:41:53;;;;;;;67.45;30.12;;;;;;;0.10;65.94;98556.50;1809874;79;27501;-81
2021/03/29 00:44:22;;;;;;;64.82;29.98;;;;;;;0.04;66.03;98556.95;1809748;79;25674;-80
2021/03/29 00:46:50;;;;;;;74.77;32.42;;;;;;;0.02;66.17;98556.22;1809872;78;25689;-81
2021/03/29 00:49:18;;;;;;;67.95;28.02;;;;;;;0.02;66.20;98558.02;1809897;79;26457;-81
2021/03/29 00:51:48;;;;;;;66.00;27.55;;;;;;;-0.01;66.10;98564.44;1809829;79;25906;-81
2021/03/29 00:54:17;;;;;;;58.70;26.27;;;;;;;-0.05;66.10;98562.97;1809917;79;27312;-81
2021/03/29 00:56:45;;;;;;;71.40;28.10;;;;;;;-0.04;66.27;98564.67;1809790;79;26288;-81
2021/03/29 00:59:13;;;;;;;77.12;30.92;;;;;;;-0.10;66.21;98568.63;1809883;79;25756;-81
2021/03/29 01:01:45;;;;;;;62.80;27.22;;;;;;;-0.10;66.35;98565.12;1809902;78;25712;-81
2021/03/29 01:04:14;;;;;;;58.68;25.32;;;;;;;-0.14;66.48;98566.34;1809946;79;25738;-80
2021/03/29 01:06:46;;;;;;;65.50;27.00;;;;;;;-0.12;66.46;98570.54;1809899;78;28344;-81
2021/03/29 01:09:17;;;;;;;;;;;;;;;-0.13;66.48;98572.02;1812442;79;25697;-81
2021/03/29 01:11:55;;;;;;;61.02;25.52;;;;;;;-0.17;66.71;98574.52;1809900;79;25830;-80
2021/03/29 01:14:30;;;;;;;57.98;25.05;;;;;;;-0.23;66.59;98573.16;1776229;79;25774;-81
2021/03/29 01:17:05;;;;;;;54.58;23.35;;;;;;;-0.23;66.69;98574.97;1809891;79;25741;-80
2021/03/29 01:19:41;;;;;;;50.23;21.27;;;;;;;-0.21;66.64;98576.55;1809831;79;27453;-81
2021/03/29 01:22:10;;;;;;;44.95;19.05;;;;;;;-0.24;66.62;98570.66;1778856;79;26243;-81
2021/03/29 01:25:08;;;;;;;41.37;19.40;;;;;;;-0.37;66.53;98573.38;1809841;79;26007;-81
2021/03/29 01:27:41;;;;;;;39.20;18.52;;;;;;;-0.40;66.67;98575.77;1809805;79;26271;-80
2021/03/29 01:30:11;;;;;;;49.67;20.57;;;;;;;-0.40;66.79;98579.75;1807758;78;25714;-81
2021/03/29 01:32:43;;;;;;;47.38;20.95;;;;;;;-0.45;66.75;98579.23;1813630;79;28461;-80
2021/03/29 01:35:18;;;;;;;50.48;21.35;;;;;;;-0.43;66.87;98583.10;1813687;79;25797;-81
2021/03/29 01:37:49;;;;;;;40.65;20.17;;;;;;;-0.46;66.79;98581.52;1813611;79;25780;-81
2021/03/29 01:40:19;;;;;;;48.38;20.90;;;;;;;-0.46;66.95;98582.84;1844750;77;25512;-80
2021/03/29 01:42:48;;;;;;;40.88;18.10;;;;;;;-0.49;66.86;98584.42;1846908;77;26123;-80
2021/03/29 01:45:18;;;;;;;51.48;21.75;;;;;;;-0.51;67.03;98591.64;1846819;77;27801;-80
2021/03/29 01:47:46;;;;;;;36.17;17.57;;;;;;;-0.52;67.07;98583.80;1846726;77;26142;-80
2021/03/29 01:50:24;;;;;;;39.75;16.93;;;;;;;-0.52;67.20;98590.42;1846830;77;26233;-79
2021/03/29 01:52:52;;;;;;;40.17;17.92;;;;;;;-0.50;67.28;98586.70;1846933;77;26447;-80
2021/03/29 01:55:20;;;;;;;41.13;18.20;;;;;;;-0.48;67.34;98591.39;1847109;77;25820;-81
2021/03/29 01:57:47;;;;;;;41.92;16.90;;;;;;;-0.49;67.36;98589.73;1846914;77;27487;-80
2021/03/29 02:00:23;;;;;;;42.48;17.27;;;;;;;-0.49;67.49;98584.90;1846858;77;25678;-78
2021/03/29 02:02:52;;;;;;;33.98;15.25;;;;;;;-0.49;67.61;98588.41;1845965;77;25670;-81
2021/03/29 02:05:20;;;;;;;36.28;15.80;;;;;;;-0.46;67.61;98593.45;1816646;77;25768;-81
2021/03/29 02:07:50;;;;;;;38.38;15.88;;;;;;;-0.45;67.60;98592.98;1847067;77;25721;-80
2021/03/29 02:10:21;;;;;;;33.42;15.25;;;;;;;-0.43;67.64;98593.23;1846946;77;28456;-80
2021/03/29 02:12:50;;;;;;;27.95;10.48;;;;;;;-0.41;67.68;98587.34;1847055;77;26196;-80
2021/03/29 02:15:26;;;;;;;32.45;14.90;;;;;;;-0.43;67.65;98582.63;1847035;77;25750;-80
2021/03/29 02:18:00;;;;;;;38.78;15.98;;;;;;;-0.43;67.75;98579.97;1846952;77;25749;-80
2021/03/29 02:20:33;;;;;;;35.58;14.33;;;;;;;-0.41;67.79;98579.86;1847001;76;25732;-80
2021/03/29 02:23:01;;;;;;;34.55;14.80;;;;;;;-0.41;67.72;98578.53;1847006;77;27529;-80
2021/03/29 02:25:30;;;;;;;34.60;13.75;;;;;;;-0.41;67.82;98574.08;1847002;77;25830;-80
2021/03/29 02:28:00;;;;;;;33.40;14.70;;;;;;;-0.40;67.86;98568.30;1846925;77;25710;-80
2021/03/29 02:30:33;;;;;;;30.23;15.25;;;;;;;-0.42;67.81;98562.25;1846612;77;25756;-80
2021/03/29 02:33:06;;;;;;;40.70;15.45;;;;;;;-0.44;67.77;98563.69;1832281;78;25706;-80
2021/03/29 02:35:35;;;;;;;;;;;;;;;-0.44;67.84;98565.02;1834940;78;28366;-80
2021/03/29 02:38:06;;;;;;;33.42;14.50;;;;;;;-0.44;67.98;98565.02;1832127;78;25682;-80
2021/03/29 02:40:35;;;;;;;32.75;13.95;;;;;;;-0.45;67.99;98561.99;1832282;78;25671;-80
2021/03/29 02:43:05;;;;;;;35.05;14.13;;;;;;;-0.44;67.91;98558.38;1832143;78;25723;-81
2021/03/29 02:45:37;;;;;;;36.10;14.07;;;;;;;-0.43;67.97;98556.58;1832179;78;26044;-80
2021/03/29 02:48:10;;;;;;;32.93;13.93;;;;;;;-0.41;67.89;98554.18;1832199;78;27528;-80
2021/03/29 02:50:39;;;;;;;;;;;;;;;-0.39;67.93;98556.72;1834841;78;25833;-80
2021/03/29 02:53:15;;;;;;;35.95;14.58;;;;;;;-0.38;68.10;98565.05;1832174;78;25603;-80
2021/03/29 02:55:44;;;;;;;44.80;15.23;;;;;;;-0.46;67.99;98558.13;1832232;78;25695;-80
2021/03/29 02:58:16;;;;;;;35.85;15.23;;;;;;;-0.42;68.01;98561.77;1832265;78;25876;-80
2021/03/29 03:00:44;;;;;;;40.28;15.53;;;;;;;-0.44;67.96;98559.70;1832402;77;27687;-80
2021/03/29 03:03:13;;;;;;;32.08;13.80;;;;;;;-0.54;68.02;98557.86;1832151;78;26435;-80
2021/03/29 03:05:41;;;;;;;33.85;14.10;;;;;;;-0.60;68.13;98557.82;1800213;78;25826;-80
2021/03/29 03:08:09;;;;;;;32.63;14.40;;;;;;;-0.58;68.28;98555.06;1832095;77;25718;-79
2021/03/29 03:10:37;;;;;;;34.00;13.78;;;;;;;-0.54;68.26;98559.19;1832201;78;25635;-80
2021/03/29 03:13:08;;;;;;;39.25;15.03;;;;;;;-0.51;68.21;98559.81;1832137;78;27466;-80
2021/03/29 03:15:37;;;;;;;27.52;13.18;;;;;;;-0.47;68.24;98555.95;1832186;78;25256;-81
2021/03/29 03:18:09;;;;;;;30.62;13.65;;;;;;;-0.44;68.27;98563.69;1832101;78;25525;-80
2021/03/29 03:20:39;;;;;;;30.95;12.13;;;;;;;-0.44;68.19;98568.14;1832166;77;25896;-80
2021/03/29 03:23:14;;;;;;;25.27;11.48;;;;;;;-0.45;68.27;98567.78;1832287;78;25715;-80
2021/03/29 03:25:47;;;;;;;25.90;11.68;;;;;;;-0.50;68.18;98573.44;1832211;78;27480;-80
2021/03/29 03:28:18;;;;;;;25.77;13.20;;;;;;;-0.53;68.32;98576.31;1832220;77;26679;-80
2021/03/29 03:30:50;;;;;;;31.17;12.43;;;;;;;-0.53;68.46;98576.31;1832213;78;25627;-78
2021/03/29 03:33:21;;;;;;;25.85;11.60;;;;;;;-0.50;68.58;98576.58;1832059;78;25718;-79
2021/03/29 03:35:52;;;;;;;33.88;12.13;;;;;;;-0.50;68.69;98573.92;1832437;78;25693;-79
2021/03/29 03:38:36;;;;;;;26.33;11.60;;;;;;;-0.49;68.75;98573.81;1832274;78;28445;-79
2021/03/29 03:41:17;;;;;;;25.32;11.30;;;;;;;-0.47;68.78;98577.17;1832081;78;25761;-79
2021/03/29 03:43:51;;;;;;;27.23;12.63;;;;;;;-0.43;68.90;98574.67;1832476;78;25623;-80
2021/03/29 03:46:26;;;;;;;26.85;13.05;;;;;;;-0.43;68.91;98577.32;1832166;78;25717;-80
2021/03/29 03:48:57;;;;;;;28.52;12.47;;;;;;;-0.38;68.91;98582.30;1832169;78;25677;-80
2021/03/29 03:51:29;;;;;;;30.23;12.85;;;;;;;-0.39;68.95;98577.95;1832149;77;27461;-80
2021/03/29 03:53:56;;;;;;;29.95;12.30;;;;;;;-0.34;69.06;98581.56;1832332;78;25756;-80
2021/03/29 03:56:25;;;;;;;28.23;12.53;;;;;;;-0.37;69.07;98586.16;1832132;78;25734;-80
2021/03/29 03:58:54;;;;;;;25.55;12.88;;;;;;;-0.34;69.16;98581.56;1832085;78;25727;-79
2021/03/29 04:01:22;;;;;;;32.95;13.20;;;;;;;-0.35;69.22;98576.73;1832170;78;25669;-80
2021/03/29 04:03:50;;;;;;;31.17;12.33;;;;;;;-0.38;69.18;98575.19;1832085;78;27484;-79
2021/03/29 04:06:17;;;;;;;27.55;13.05;;;;;;;-0.34;69.27;98577.58;1831980;78;25766;-79
2021/03/29 04:08:45;;;;;;;27.48;13.50;;;;;;;-0.33;69.34;98577.47;1832252;78;25646;-79
2021/03/29 04:11:13;;;;;;;27.65;12.78;;;;;;;-0.30;69.33;98568.44;1832165;78;26525;-80
2021/03/29 04:13:40;;;;;;;28.47;12.37;;;;;;;-0.29;69.26;98574.12;1832103;77;25678;-80
2021/03/29 04:16:09;;;;;;;29.48;13.35;;;;;;;-0.28;69.32;98573.16;1832160;78;27479;-80
2021/03/29 04:18:37;;;;;;;29.95;13.68;;;;;;;-0.30;69.24;98575.92;1831992;78;26253;-80
2021/03/29 04:21:06;;;;;;;32.17;13.25;;;;;;;-0.29;69.29;98578.95;1832193;78;25697;-80
2021/03/29 04:23:34;;;;;;;28.87;13.15;;;;;;;-0.27;69.28;98573.53;1832090;77;26001;-80
2021/03/29 04:26:01;;;;;;;36.40;14.10;;;;;;;-0.24;69.39;98583.41;1832155;78;25754;-80
2021/03/29 04:28:30;;;;;;;29.72;13.65;;;;;;;-0.25;69.40;98582.22;1832232;78;27529;-80
2021/03/29 04:30:58;;;;;;;29.98;14.33;;;;;;;-0.29;69.39;98581.59;1831963;78;25693;-80
2021/03/29 04:33:25;;;;;;;34.80;14.95;;;;;;;-0.25;69.54;98580.90;1832058;78;25651;-79
2021/03/29 04:35:53;;;;;;;46.75;17.87;;;;;;;-0.22;69.51;98584.63;1832164;78;25870;-79
2021/03/29 04:38:20;;;;;;;47.78;17.52;;;;;;;-0.18;69.69;98593.58;1832153;78;25868;-79
2021/03/29 04:40:47;;;;;;;45.63;17.73;;;;;;;-0.14;69.75;98592.88;1832227;78;28644;-78
2021/03/29 04:43:15;;;;;;;46.20;20.68;;;;;;;-0.09;69.82;98603.48;1832086;78;26283;-80
2021/03/29 04:45:42;;;;;;;147.02;66.72;;;;;;;-0.08;69.80;98601.69;1832155;78;26095;-79
2021/03/29 04:48:10;;;;;;;173.05;74.58;;;;;;;-0.04;69.77;98600.50;1831986;78;25726;-80
2021/03/29 04:50:38;;;;;;;98.65;45.00;;;;;;;0.00;69.86;98607.28;1832169;77;25947;-79
2021/03/29 04:53:05;;;;;;;62.15;26.68;;;;;;;0.06;70.08;98601.97;1832067;77;27604;-80
2021/03/29 04:55:33;;;;;;;48.75;19.50;;;;;;;0.09;70.05;98604.41;1831973;77;25780;-79
2021/03/29 04:58:00;;;;;;;46.65;20.57;;;;;;;0.13;70.10;98604.03;1832171;78;25765;-80
2021/03/29 05:00:28;;;;;;;47.80;21.62;;;;;;;0.12;69.93;98607.64;1832054;78;26335;-79
2021/03/29 05:02:55;;;;;;;53.65;20.25;;;;;;;0.14;70.06;98609.70;1832190;78;25294;-79
2021/03/29 05:05:23;;;;;;;51.30;20.60;;;;;;;0.13;70.12;98607.16;1832043;78;27555;-79
2021/03/29 05:07:50;;;;;;;54.45;22.67;;;;;;;0.14;70.15;98612.36;1832079;77;25786;-78
2021/03/29 05:10:18;;;;;;;68.02;26.17;;;;;;;0.16;70.18;98611.77;1832016;78;25429;-79
2021/03/29 05:12:45;;;;;;;86.28;32.08;;;;;;;0.23;70.17;98611.69;1832040;77;25726;-79
2021/03/29 05:15:15;;;;;;;85.35;38.08;;;;;;;0.30;70.18;98616.03;1832089;78;25658;-80
2021/03/29 05:17:42;;;;;;;122.42;51.42;;;;;;;0.38;70.20;98618.09;1831985;77;27488;-79
2021/03/29 05:20:10;;;;;;;111.75;52.30;;;;;;;0.43;70.18;98622.09;1832063;77;25762;-79
2021/03/29 05:22:38;;;;;;;106.67;46.70;;;;;;;0.48;70.18;98624.41;1832006;77;25766;-79
2021/03/29 05:25:07;;;;;;;88.42;37.45;;;;;;;0.50;70.24;98625.10;1832040;78;25714;-79
2021/03/29 05:27:34;;;;;;;76.02;33.60;;;;;;;0.53;70.16;98622.22;1832088;78;25950;-80
2021/03/29 05:30:03;;;;;;;70.35;30.15;;;;;;;0.59;70.11;98623.94;1832100;77;27492;-80
2021/03/29 05:32:31;;;;;;;83.72;37.90;;;;;;;0.66;70.22;98624.28;1831773;77;25628;-80
2021/03/29 05:35:00;;;;;;;89.67;38.58;;;;;;;0.71;70.18;98625.64;1831993;78;25691;-80
2021/03/29 05:37:30;;;;;;;81.82;33.65;;;;;;;0.79;70.11;98626.83;1832113;78;26278;-79
2021/03/29 05:39:59;;;;;;;81.17;35.25;;;;;;;0.88;70.26;98626.95;1832091;78;25809;-79
2021/03/29 05:42:30;;;;;;;88.50;37.58;;;;;;;0.93;70.40;98635.41;1832095;78;27545;-79
2021/03/29 05:45:08;;;;;;;99.07;42.20;;;;;;;0.95;70.37;98622.01;1832050;78;25709;-79
2021/03/29 05:47:37;;;;;;;96.85;39.27;;;;;;;1.02;70.46;98624.05;1832156;78;25622;-79
2021/03/29 05:50:13;;;;;;;94.70;40.50;;;;;;;1.08;70.39;98621.39;1832020;77;25689;-79
2021/03/29 05:52:41;;;;;;;88.97;38.55;;;;;;;1.14;70.30;98614.72;1831113;78;26289;-79
2021/03/29 05:55:12;;;;;;;89.35;38.80;;;;;;;1.22;70.30;98613.13;1832142;78;27493;-79
2021/03/29 05:57:52;;;;;;;130.63;49.53;;;;;;;1.28;70.33;98609.14;1832298;78;25641;-79
2021/03/29 06:00:40;;;;;;;117.62;46.13;;;;;;;1.37;70.33;98607.91;1829320;77;25841;-79
2021/03/29 06:03:36;;;;;;;130.78;47.10;;;;;;;1.47;70.45;98606.67;1832105;78;25620;-79
2021/03/29 06:06:16;;;;;;;95.03;40.23;;;;;;;1.59;70.63;98606.14;1832084;78;25788;-79
2021/03/29 06:08:50;;;;;;;66.22;30.62;;;;;;;1.69;70.43;98605.26;1832142;78;27503;-80
2021/03/29 06:11:28;;;;;;;49.80;24.02;;;;;;;1.81;70.43;98606.09;1831948;78;25684;-79
2021/03/29 06:14:19;;;;;;;46.50;21.95;;;;;;;1.94;70.28;98608.55;1832087;78;25674;-79
2021/03/29 06:17:04;;;;;;;47.78;25.50;;;;;;;2.06;70.11;98610.19;1832038;77;26380;-80
2021/03/29 06:19:42;;;;;;;67.42;32.55;;;;;;;2.18;69.92;98618.48;1831274;78;25690;-80
2021/03/29 06:22:27;;;;;;;61.13;30.62;;;;;;;2.29;69.81;98614.93;1832030;78;28464;-79
2021/03/29 06:25:18;;;;;;;64.77;34.55;;;;;;;2.40;69.70;98620.19;1832043;78;25738;-79
2021/03/29 06:27:58;;;;;;;62.00;33.33;;;;;;;2.52;69.69;98621.32;1832021;78;25759;-79
2021/03/29 06:30:33;;;;;;;78.62;39.70;;;;;;;2.64;69.53;98626.09;1832113;77;25753;-79
2021/03/29 06:33:08;;;;;;;83.33;41.58;;;;;;;2.80;69.51;98633.58;1832069;78;25698;-80
2021/03/29 06:35:55;;;;;;;100.27;51.10;;;;;;;2.92;69.39;98623.67;1832063;78;27528;-80
2021/03/29 06:38:34;;;;;;;100.92;51.55;;;;;;;3.04;69.32;98628.78;1832165;78;25658;-80
2021/03/29 06:41:05;;;;;;;85.38;45.85;;;;;;;3.16;69.12;98631.70;1832171;78;25320;-80
2021/03/29 06:43:41;;;;;;;82.50;44.58;;;;;;;3.28;68.91;98628.93;1832272;78;25697;-80
2021/03/29 06:46:22;;;;;;;63.23;32.15;;;;;;;3.36;68.61;98625.11;1832259;78;25721;-80
2021/03/29 06:48:50;;;;;;;63.78;34.83;;;;;;;3.42;68.36;98616.55;1832288;78;28388;-80
2021/03/29 06:51:25;;;;;;;75.55;34.90;;;;;;;3.51;68.41;98625.91;1832063;78;26152;-82
2021/03/29 06:54:10;;;;;;;77.47;37.63;;;;;;;3.59;68.31;98626.56;1832274;78;25689;-80
2021/03/29 06:56:44;;;;;;;91.80;41.83;;;;;;;3.63;68.41;98623.95;1832106;78;25722;-80
2021/03/29 06:59:19;;;;;;;86.90;42.62;;;;;;;3.69;68.41;98625.23;1832177;78;25722;-80
2021/03/29 07:02:00;;;;;;;76.65;39.60;;;;;;;3.77;68.33;98622.71;1832207;78;28376;-80
2021/03/29 07:04:27;;;;;;;90.67;41.05;;;;;;;3.85;68.22;98616.20;1831996;78;25687;-81
2021/03/29 07:06:56;;;;;;;74.17;41.65;;;;;;;3.93;68.00;98621.19;1832210;77;25678;-80
2021/03/29 07:09:25;;;;;;;147.13;59.50;;;;;;;4.01;67.96;98611.61;1832205;78;25808;-81
2021/03/29 07:11:54;;;;;;;167.80;71.35;;;;;;;4.05;68.07;98615.70;1832167;78;25797;-81
2021/03/29 07:14:22;;;;;;;128.27;53.55;;;;;;;4.09;68.01;98605.94;1832212;78;27640;-80
2021/03/29 07:16:53;;;;;;;92.40;41.73;;;;;;;4.14;67.91;98609.50;1832096;78;25276;-80
2021/03/29 07:19:23;;;;;;;87.53;39.13;;;;;;;4.18;67.82;98610.42;1832278;77;25724;-81
2021/03/29 07:21:52;;;;;;;77.90;39.88;;;;;;;4.23;67.79;98612.66;1832320;78;26446;-82
2021/03/29 07:24:21;;;;;;;82.90;39.30;;;;;;;4.30;67.77;98613.79;1832193;78;25807;-81
2021/03/29 07:27:00;;;;;;;81.15;40.55;;;;;;;4.37;67.75;98612.22;1831966;77;28736;-80
2021/03/29 07:29:36;;;;;;;87.45;41.13;;;;;;;4.43;67.58;98610.33;1832081;78;26219;-81
2021/03/29 07:32:06;;;;;;;71.80;39.75;;;;;;;4.48;67.50;98605.38;1832187;78;25705;-81
2021/03/29 07:34:51;;;;;;;69.58;34.67;;;;;;;4.56;67.45;98609.52;1800052;78;25780;-81
2021/03/29 07:37:33;;;;;;;74.15;35.75;;;;;;;4.63;67.33;98613.79;1832142;78;25666;-81
2021/03/29 07:40:08;;;;;;;80.20;36.00;;;;;;;4.71;67.44;98609.39;1832164;78;27483;-81
2021/03/29 07:42:39;;;;;;;85.25;38.55;;;;;;;4.80;67.33;98610.87;1827211;78;25678;-80
2021/03/29 07:45:12;;;;;;;89.42;40.78;;;;;;;4.89;67.35;98605.48;1832033;78;25789;-79
2021/03/29 07:47:55;;;;;;;90.67;40.90;;;;;;;5.00;67.17;98609.80;1832279;78;25725;-80
2021/03/29 07:50:31;;;;;;;98.20;40.38;;;;;;;5.10;67.08;98609.75;1832234;78;25726;-81
2021/03/29 07:53:04;;;;;;;93.55;37.83;;;;;;;5.20;66.83;98610.05;1832098;78;27494;-80
2021/03/29 07:55:48;;;;;;;84.60;38.80;;;;;;;5.31;66.65;98607.70;1832204;78;25738;-81
2021/03/29 07:58:21;;;;;;;94.28;39.42;;;;;;;5.41;66.78;98605.81;1832208;78;26206;-80
2021/03/29 08:00:52;;;;;;;96.55;41.50;;;;;;;5.51;66.68;98601.72;1832181;78;25511;-80
2021/03/29 08:03:28;;;;;;;90.75;38.75;;;;;;;5.60;66.42;98604.83;1831736;78;25713;-81
2021/03/29 08:05:55;;;;;;;90.10;35.45;;;;;;;5.69;66.33;98603.92;1832082;78;27485;-79
2021/03/29 08:08:33;;;;;;;71.15;29.42;;;;;;;5.78;66.18;98608.39;1832137;78;25711;-81
2021/03/29 08:11:14;;;;;;;59.38;28.60;;;;;;;5.87;65.76;98610.15;1832126;78;25805;-81
2021/03/29 08:13:54;;;;;;;63.78;27.90;;;;;;;5.97;65.58;98609.61;1832136;77;26558;-80
2021/03/29 08:16:29;;;;;;;54.38;25.23;;;;;;;6.05;65.60;98620.89;1832155;78;25822;-80
2021/03/29 08:19:20;;;;;;;49.67;20.88;;;;;;;6.13;65.28;98617.80;1832161;78;27540;-81
2021/03/29 08:22:10;;;;;;;47.53;19.23;;;;;;;6.21;64.93;98618.86;1832083;78;26077;-80
2021/03/29 08:24:44;;;;;;;45.23;19.85;;;;;;;6.27;64.71;98617.77;1832165;78;25771;-81
2021/03/29 08:27:20;;;;;;;33.28;14.53;;;;;;;6.34;64.76;98613.95;1832123;78;25793;-81
2021/03/29 08:29:52;;;;;;;34.63;16.45;;;;;;;6.41;64.44;98615.84;1832205;78;25823;-81
2021/03/29 08:32:31;;;;;;;62.53;20.07;;;;;;;6.48;64.18;98617.42;1832364;78;28138;-81
2021/03/29 08:35:18;;;;;;;55.90;20.12;;;;;;;6.57;64.03;98616.97;1831993;78;26164;-80
2021/03/29 08:37:49;;;;;;;42.08;17.20;;;;;;;6.65;64.14;98614.34;1832123;78;25675;-81
2021/03/29 08:40:30;;;;;;;43.95;18.10;;;;;;;6.72;64.01;98616.25;1832139;78;25818;-81
2021/03/29 08:43:09;;;;;;;36.33;16.80;;;;;;;6.80;63.63;98616.30;1832159;78;25646;-80
2021/03/29 08:45:38;;;;;;;57.93;35.88;;;;;;;6.92;63.40;98620.05;1832083;78;28697;-78
2021/03/29 08:48:06;;;;;;;32.40;17.80;;;;;;;7.02;63.44;98612.72;1831998;78;26239;-80
2021/03/29 08:50:39;;;;;;;27.48;14.35;;;;;;;7.12;63.16;98618.84;1832041;78;25685;-80
2021/03/29 08:53:11;;;;;;;27.67;13.50;;;;;;;7.23;62.88;98622.59;1831952;78;26372;-81
2021/03/29 08:55:43;;;;;;;32.53;12.98;;;;;;;7.32;62.51;98620.27;1832134;78;25730;-81
2021/03/29 08:58:12;;;;;;;29.85;11.93;;;;;;;7.40;62.25;98618.95;1832107;78;27638;-81
2021/03/29 09:00:43;;;;;;;31.97;13.20;;;;;;;7.48;61.88;98606.91;1831966;78;26065;-79
2021/03/29 09:03:19;;;;;;;25.17;12.35;;;;;;;7.57;61.55;98613.98;1832526;78;25744;-80
2021/03/29 09:05:48;;;;;;;27.20;12.43;;;;;;;7.67;61.45;98613.84;1832191;78;26541;-82
2021/03/29 09:08:16;;;;;;;28.73;13.18;;;;;;;7.78;61.45;98612.19;1832193;78;25685;-80
2021/03/29 09:10:45;;;;;;;20.30;10.08;;;;;;;7.89;61.57;98605.66;1832079;78;27485;-80
2021/03/29 09:13:16;;;;;;;22.70;10.85;;;;;;;8.02;61.14;98609.20;1832038;78;26305;-80
2021/03/29 09:15:48;;;;;;;22.13;10.72;;;;;;;8.11;60.97;98608.20;1832160;77;25736;-80
2021/03/29 09:18:28;;;;;;;20.17;8.65;;;;;;;8.31;60.17;98602.86;1832148;77;26408;-81
2021/03/29 09:20:55;;;;;;;16.10;7.75;;;;;;;8.31;60.17;98602.86;1832107;78;25753;-80
2021/03/29 09:23:28;;;;;;;15.18;7.92;;;;;;;8.44;60.01;98602.39;1832129;78;28474;-81
2021/03/29 09:25:55;;;;;;;19.73;8.95;;;;;;;8.55;59.71;98599.34;1831881;78;26504;-81
2021/03/29 09:28:37;;;;;;;20.55;11.78;;;;;;;8.68;59.35;98601.02;1832172;78;25746;-81
2021/03/29 09:31:10;;;;;;;41.50;17.07;;;;;;;8.79;59.06;98597.13;1831962;78;25714;-81
2021/03/29 09:33:46;;;;;;;29.60;12.60;;;;;;;8.91;59.04;98596.60;1833513;77;25800;-81
2021/03/29 09:36:20;;;;;;;28.80;13.43;;;;;;;8.99;58.26;98593.03;1841504;77;27510;-81
2021/03/29 09:38:53;;;;;;;22.52;9.25;;;;;;;9.05;58.26;98592.36;1841357;77;26055;-82
2021/03/29 09:41:28;;;;;;;22.17;8.65;;;;;;;9.10;57.73;98589.13;1841611;77;25734;-81
2021/03/29 09:43:58;;;;;;;20.40;9.98;;;;;;;9.17;57.80;98592.83;1841527;77;25729;-81
2021/03/29 09:46:35;;;;;;;19.45;7.35;;;;;;;9.24;57.67;98595.14;1841561;77;25642;-78
2021/03/29 09:49:14;;;;;;;19.42;8.45;;;;;;;9.27;57.26;98593.46;1841402;77;27483;-79
2021/03/29 09:51:46;;;;;;;16.05;8.13;;;;;;;9.35;57.44;98592.06;1841291;77;26060;-80
2021/03/29 09:54:32;;;;;;;18.12;8.30;;;;;;;9.46;57.24;98591.68;1841477;77;32230;-79
2021/03/29 09:57:18;;;;;;;14.90;6.90;;;;;;;9.53;56.84;98588.63;1841458;77;25718;-79
2021/03/29 09:59:46;;;;;;;17.92;7.12;;;;;;;9.60;56.66;98592.29;1841452;77;25758;-78
2021/03/29 10:02:18;;;;;;;15.68;7.30;;;;;;;9.66;56.46;98587.52;1841369;77;27482;-79
2021/03/29 10:04:46;;;;;;;18.65;7.95;;;;;;;9.70;56.31;98587.52;1841453;77;30402;-81
2021/03/29 10:07:17;;;;;;;15.88;7.67;;;;;;;9.79;56.26;98594.20;1841317;77;25730;-81
2021/03/29 10:09:47;;;;;;;17.55;8.35;;;;;;;9.86;55.87;98589.79;1841453;77;25711;-79
2021/03/29 10:12:28;;;;;;;17.07;7.67;;;;;;;9.91;55.95;98590.08;1841521;77;25766;-79
2021/03/29 10:15:13;;;;;;;17.02;8.50;;;;;;;9.98;56.01;98585.16;1841266;77;27545;-78
2021/03/29 10:17:41;;;;;;;16.12;7.55;;;;;;;10.04;55.62;98583.59;1841499;77;25650;-80
2021/03/29 10:20:14;;;;;;;17.55;7.65;;;;;;;10.10;55.44;98577.48;1841659;77;25357;-79
2021/03/29 10:22:41;;;;;;;;;;;;;;;10.21;55.68;98573.56;1844456;77;25778;-80
2021/03/29 10:25:18;;;;;;;19.20;7.50;;;;;;;10.32;55.17;98569.92;1841718;77;25704;-80
2021/03/29 10:27:56;;;;;;;15.38;7.08;;;;;;;10.42;55.28;98571.86;1841628;77;27466;-80
2021/03/29 10:30:30;;;;;;;16.52;7.70;;;;;;;10.55;54.91;98569.88;1841503;77;25682;-81
2021/03/29 10:33:01;;;;;;;15.93;7.62;;;;;;;10.63;54.97;98564.91;1841556;77;25818;-79
2021/03/29 10:35:31;;;;;;;11.05;6.33;;;;;;;10.76;55.38;98559.20;1832657;77;26361;-79
2021/03/29 10:38:01;;;;;;;14.43;6.90;;;;;;;10.88;54.55;98559.59;1832264;78;25855;-79
2021/03/29 10:40:29;;;;;;;13.72;6.08;;;;;;;10.97;54.40;98546.34;1832232;78;28398;-80
2021/03/29 10:42:57;;;;;;;13.48;6.58;;;;;;;11.09;54.20;98548.06;1831951;78;25691;-79
2021/03/29 10:45:24;;;;;;;9.60;5.40;;;;;;;11.22;53.97;98544.70;1832216;78;25746;-79
2021/03/29 10:47:52;;;;;;;12.73;5.33;;;;;;;11.32;53.77;98539.33;1832257;77;25766;-80
2021/03/29 10:50:22;;;;;;;9.45;5.58;;;;;;;11.40;53.39;98537.86;1832212;78;25718;-81
2021/03/29 10:52:50;;;;;;;10.88;5.40;;;;;;;11.48;53.11;98536.39;1832105;78;27498;-79
2021/03/29 10:55:19;;;;;;;12.43;5.03;;;;;;;11.59;51.66;98539.14;1832113;78;26038;-78
2021/03/29 10:57:47;;;;;;;14.00;5.60;;;;;;;11.63;52.36;98535.01;1832166;78;25730;-80
2021/03/29 11:00:16;;;;;;;15.08;5.22;;;;;;;11.75;52.31;98538.92;1832112;77;26446;-81
2021/03/29 11:02:43;;;;;;;11.75;5.83;;;;;;;11.89;52.27;98536.69;1832254;78;25757;-79
2021/03/29 11:05:14;;;;;;;13.60;4.85;;;;;;;12.02;52.13;98527.87;1832252;78;28442;-81
2021/03/29 11:07:41;;;;;;;10.08;4.50;;;;;;;12.18;51.75;98522.72;1832224;78;25715;-80
2021/03/29 11:10:12;;;;;;;13.60;4.78;;;;;;;12.34;51.53;98529.19;1832281;78;25722;-81
2021/03/29 11:12:39;;;;;;;13.60;6.05;;;;;;;12.40;51.19;98524.37;1832232;77;27539;-79
2021/03/29 11:15:09;;;;;;;12.95;6.03;;;;;;;12.53;51.34;98519.05;1832131;77;25740;-81
2021/03/29 11:17:38;;;;;;;13.50;5.70;;;;;;;12.62;50.83;98521.93;1832104;78;27502;-81
2021/03/29 11:20:07;;;;;;;10.60;4.87;;;;;;;12.73;50.68;98523.25;1832123;78;26326;-80
2021/03/29 11:22:35;;;;;;;12.00;5.42;;;;;;;12.79;50.18;98521.64;1827117;78;25775;-80
2021/03/29 11:25:06;;;;;;;12.78;5.53;;;;;;;12.81;50.06;98514.13;1832187;78;25769;-80
2021/03/29 11:27:33;;;;;;;15.63;5.97;;;;;;;12.90;50.02;98510.24;1832188;78;25685;-81
2021/03/29 11:30:03;;;;;;;12.20;5.58;;;;;;;12.93;49.58;98509.82;1832178;77;27492;-80
2021/03/29 11:32:30;;;;;;;12.70;5.78;;;;;;;13.02;49.59;98520.84;1832026;78;25995;-80
2021/03/29 11:34:58;;;;;;;10.68;5.50;;;;;;;13.16;49.39;98504.17;1832122;77;25883;-80
2021/03/29 11:37:25;;;;;;;13.15;5.28;;;;;;;13.34;49.14;98512.58;1832115;78;25663;-79
2021/03/29 11:39:53;;;;;;;13.35;5.15;;;;;;;13.51;48.97;98517.14;1832174;78;25867;-80
2021/03/29 11:42:21;;;;;;;10.60;4.85;;;;;;;13.63;48.64;98508.73;1832084;78;27469;-79
2021/03/29 11:44:48;;;;;;;12.10;4.92;;;;;;;13.71;48.30;98512.61;1831947;78;25685;-80
2021/03/29 11:47:16;;;;;;;10.45;5.47;;;;;;;13.72;47.88;98507.50;1832155;78;25704;-78